Terminal Aerodrome Forecast
Issued by NWS Wilmington, NC

Home | Current Version | Previous Version | Text Only | Print | Product List | Glossary On
Versions: 1 2 3 4 5 6 7 8 9 10 11 12 13
000
FTUS42 KILM 251700
TAFFLO
TAF
KFLO 251720Z 2518/2618 32005KT P6SM SKC
     FM260000 VRB03KT P6SM SCT080
     FM260700 31005KT P6SM SCT060
     FM261500 33009KT P6SM SKC=

USA.gov is the U.S. government's official web portal to all federal, state and local government web resources and services.